sensor_id;sensor_type;location;lat;lon;timestamp;temperature;humidity
23073;DHT22;67971;51.046;3.732;2023-08-17T00:01:26;22.10;99.90
23073;DHT22;67971;51.046;3.732;2023-08-17T00:03:52;22.00;99.90
23073;DHT22;67971;51.046;3.732;2023-08-17T00:06:18;21.80;99.90
23073;DHT22;67971;51.046;3.732;2023-08-17T00:08:43;21.90;99.90
23073;DHT22;67971;51.046;3.732;2023-08-17T00:11:09;21.90;99.90
23073;DHT22;67971;51.046;3.732;2023-08-17T00:13:35;21.90;99.90
23073;DHT22;67971;51.046;3.732;2023-08-17T00:16:01;21.90;99.90
23073;DHT22;67971;51.046;3.732;2023-08-17T00:18:27;21.90;99.90
23073;DHT22;67971;51.046;3.732;2023-08-17T00:20:53;21.70;99.90
23073;DHT22;67971;51.046;3.732;2023-08-17T00:23:18;21.60;99.90
23073;DHT22;67971;51.046;3.732;2023-08-17T00:25:46;21.50;99.90
23073;DHT22;67971;51.046;3.732;2023-08-17T00:28:13;21.40;99.90
23073;DHT22;67971;51.046;3.732;2023-08-17T00:30:39;21.40;99.90
23073;DHT22;67971;51.046;3.732;2023-08-17T00:33:05;21.30;99.90
23073;DHT22;67971;51.046;3.732;2023-08-17T00:35:31;21.30;99.90
23073;DHT22;67971;51.046;3.732;2023-08-17T00:37:56;21.30;99.90
23073;DHT22;67971;51.046;3.732;2023-08-17T00:40:22;21.30;99.90
23073;DHT22;67971;51.046;3.732;2023-08-17T00:42:48;21.30;99.90
23073;DHT22;67971;51.046;3.732;2023-08-17T00:45:15;21.30;99.90
23073;DHT22;67971;51.046;3.732;2023-08-17T00:47:41;21.20;99.90
23073;DHT22;67971;51.046;3.732;2023-08-17T00:50:07;21.10;99.90
23073;DHT22;67971;51.046;3.732;2023-08-17T00:52:33;21.00;99.90
23073;DHT22;67971;51.046;3.732;2023-08-17T00:55:00;21.00;99.90
23073;DHT22;67971;51.046;3.732;2023-08-17T00:57:27;20.80;99.90
23073;DHT22;67971;51.046;3.732;2023-08-17T00:59:53;20.80;99.90
23073;DHT22;67971;51.046;3.732;2023-08-17T01:02:19;20.80;99.90
23073;DHT22;67971;51.046;3.732;2023-08-17T01:04:44;20.90;99.90
23073;DHT22;67971;51.046;3.732;2023-08-17T01:07:10;20.80;99.90
23073;DHT22;67971;51.046;3.732;2023-08-17T01:09:36;20.70;99.90
23073;DHT22;67971;51.046;3.732;2023-08-17T01:12:17;20.70;99.90
23073;DHT22;67971;51.046;3.732;2023-08-17T01:14:53;20.70;99.90
23073;DHT22;67971;51.046;3.732;2023-08-17T01:17:40;20.70;99.90
23073;DHT22;67971;51.046;3.732;2023-08-17T01:20:08;20.70;99.90
23073;DHT22;67971;51.046;3.732;2023-08-17T01:22:40;20.70;99.90
23073;DHT22;67971;51.046;3.732;2023-08-17T01:25:06;20.60;99.90
23073;DHT22;67971;51.046;3.732;2023-08-17T01:27:44;20.70;99.90
23073;DHT22;67971;51.046;3.732;2023-08-17T01:30:15;20.70;99.90
23073;DHT22;67971;51.046;3.732;2023-08-17T01:33:07;20.80;99.90
23073;DHT22;67971;51.046;3.732;2023-08-17T01:35:44;20.90;99.90
23073;DHT22;67971;51.046;3.732;2023-08-17T01:38:18;20.80;99.90
23073;DHT22;67971;51.046;3.732;2023-08-17T01:40:47;20.80;99.90
23073;DHT22;67971;51.046;3.732;2023-08-17T01:43:16;21.00;99.90
23073;DHT22;67971;51.046;3.732;2023-08-17T01:45:41;21.10;99.90
23073;DHT22;67971;51.046;3.732;2023-08-17T01:48:07;21.20;99.90
23073;DHT22;67971;51.046;3.732;2023-08-17T01:50:33;21.30;99.90
23073;DHT22;67971;51.046;3.732;2023-08-17T01:52:58;21.30;99.90
23073;DHT22;67971;51.046;3.732;2023-08-17T01:55:24;21.30;99.90
23073;DHT22;67971;51.046;3.732;2023-08-17T01:57:50;21.30;99.90
23073;DHT22;67971;51.046;3.732;2023-08-17T02:00:15;21.30;99.90
23073;DHT22;67971;51.046;3.732;2023-08-17T02:02:41;21.40;99.90
23073;DHT22;67971;51.046;3.732;2023-08-17T02:05:08;21.30;99.90
23073;DHT22;67971;51.046;3.732;2023-08-17T02:07:33;21.20;99.90
23073;DHT22;67971;51.046;3.732;2023-08-17T02:09:59;21.20;99.90
23073;DHT22;67971;51.046;3.732;2023-08-17T02:12:25;21.10;99.90
23073;DHT22;67971;51.046;3.732;2023-08-17T02:14:50;21.10;99.90
23073;DHT22;67971;51.046;3.732;2023-08-17T02:17:16;21.20;99.90
23073;DHT22;67971;51.046;3.732;2023-08-17T02:19:45;21.20;99.90
23073;DHT22;67971;51.046;3.732;2023-08-17T02:22:13;21.30;99.90
23073;DHT22;67971;51.046;3.732;2023-08-17T02:24:39;21.40;99.90
23073;DHT22;67971;51.046;3.732;2023-08-17T02:27:05;21.40;99.90
23073;DHT22;67971;51.046;3.732;2023-08-17T02:29:30;21.50;99.90
23073;DHT22;67971;51.046;3.732;2023-08-17T02:31:56;21.20;99.90
23073;DHT22;67971;51.046;3.732;2023-08-17T02:34:21;21.20;99.90
23073;DHT22;67971;51.046;3.732;2023-08-17T02:36:47;21.10;99.90
23073;DHT22;67971;51.046;3.732;2023-08-17T02:39:13;21.20;99.90
23073;DHT22;67971;51.046;3.732;2023-08-17T02:41:38;21.30;99.90
23073;DHT22;67971;51.046;3.732;2023-08-17T02:44:05;21.30;99.90
23073;DHT22;67971;51.046;3.732;2023-08-17T02:46:30;21.30;99.90
23073;DHT22;67971;51.046;3.732;2023-08-17T02:48:56;21.30;99.90
23073;DHT22;67971;51.046;3.732;2023-08-17T02:51:21;21.30;99.90
23073;DHT22;67971;51.046;3.732;2023-08-17T02:53:47;21.30;99.90
23073;DHT22;67971;51.046;3.732;2023-08-17T02:56:13;21.40;99.90
23073;DHT22;67971;51.046;3.732;2023-08-17T02:58:41;21.50;99.90
23073;DHT22;67971;51.046;3.732;2023-08-17T03:01:08;21.40;99.90
23073;DHT22;67971;51.046;3.732;2023-08-17T03:03:34;21.30;99.90
23073;DHT22;67971;51.046;3.732;2023-08-17T03:06:00;21.20;99.90
23073;DHT22;67971;51.046;3.732;2023-08-17T03:08:25;21.20;99.90
23073;DHT22;67971;51.046;3.732;2023-08-17T03:10:51;21.10;99.90
23073;DHT22;67971;51.046;3.732;2023-08-17T03:13:16;21.00;99.90
23073;DHT22;67971;51.046;3.732;2023-08-17T03:15:42;20.80;99.90
23073;DHT22;67971;51.046;3.732;2023-08-17T03:18:08;20.80;99.90
23073;DHT22;67971;51.046;3.732;2023-08-17T03:20:33;20.70;99.90
23073;DHT22;67971;51.046;3.732;2023-08-17T03:22:59;20.70;99.90
23073;DHT22;67971;51.046;3.732;2023-08-17T03:25:25;20.70;99.90
23073;DHT22;67971;51.046;3.732;2023-08-17T03:27:50;20.60;99.90
23073;DHT22;67971;51.046;3.732;2023-08-17T03:30:16;20.60;99.90
23073;DHT22;67971;51.046;3.732;2023-08-17T03:32:42;20.60;99.90
23073;DHT22;67971;51.046;3.732;2023-08-17T03:35:08;20.40;99.90
23073;DHT22;67971;51.046;3.732;2023-08-17T03:37:33;20.40;99.90
23073;DHT22;67971;51.046;3.732;2023-08-17T03:39:59;20.30;99.90
23073;DHT22;67971;51.046;3.732;2023-08-17T03:42:26;20.20;99.90
23073;DHT22;67971;51.046;3.732;2023-08-17T03:44:52;20.20;99.90
23073;DHT22;67971;51.046;3.732;2023-08-17T03:47:18;20.10;99.90
23073;DHT22;67971;51.046;3.732;2023-08-17T03:49:44;20.20;99.90
23073;DHT22;67971;51.046;3.732;2023-08-17T03:52:10;20.20;99.90
23073;DHT22;67971;51.046;3.732;2023-08-17T03:54:36;20.30;99.90
23073;DHT22;67971;51.046;3.732;2023-08-17T03:57:02;20.30;99.90
23073;DHT22;67971;51.046;3.732;2023-08-17T03:59:28;20.30;99.90
23073;DHT22;67971;51.046;3.732;2023-08-17T04:01:54;20.30;99.90
23073;DHT22;67971;51.046;3.732;2023-08-17T04:04:19;20.20;99.90
23073;DHT22;67971;51.046;3.732;2023-08-17T04:06:45;20.20;99.90
23073;DHT22;67971;51.046;3.732;2023-08-17T04:09:11;20.10;99.90
23073;DHT22;67971;51.046;3.732;2023-08-17T04:11:36;20.20;99.90
23073;DHT22;67971;51.046;3.732;2023-08-17T04:14:03;20.30;99.90
23073;DHT22;67971;51.046;3.732;2023-08-17T04:16:28;20.30;99.90
23073;DHT22;67971;51.046;3.732;2023-08-17T04:18:54;20.20;99.90
23073;DHT22;67971;51.046;3.732;2023-08-17T04:21:20;20.30;99.90
23073;DHT22;67971;51.046;3.732;2023-08-17T04:23:46;20.20;99.90
23073;DHT22;67971;51.046;3.732;2023-08-17T04:26:11;20.10;99.90
23073;DHT22;67971;51.046;3.732;2023-08-17T04:28:37;20.10;99.90
23073;DHT22;67971;51.046;3.732;2023-08-17T04:31:03;20.00;99.90
23073;DHT22;67971;51.046;3.732;2023-08-17T04:33:28;20.00;99.90
23073;DHT22;67971;51.046;3.732;2023-08-17T04:35:54;20.00;99.90
23073;DHT22;67971;51.046;3.732;2023-08-17T04:38:20;20.00;99.90
23073;DHT22;67971;51.046;3.732;2023-08-17T04:40:46;20.00;99.90
23073;DHT22;67971;51.046;3.732;2023-08-17T04:43:11;20.00;99.90
23073;DHT22;67971;51.046;3.732;2023-08-17T04:45:37;20.00;99.90
23073;DHT22;67971;51.046;3.732;2023-08-17T04:48:03;19.90;99.90
23073;DHT22;67971;51.046;3.732;2023-08-17T04:50:29;20.00;99.90
23073;DHT22;67971;51.046;3.732;2023-08-17T04:52:55;19.80;99.90
23073;DHT22;67971;51.046;3.732;2023-08-17T04:55:20;19.80;99.90
23073;DHT22;67971;51.046;3.732;2023-08-17T04:57:46;19.90;99.90
23073;DHT22;67971;51.046;3.732;2023-08-17T05:00:13;19.80;99.90
23073;DHT22;67971;51.046;3.732;2023-08-17T05:02:39;19.80;99.90
23073;DHT22;67971;51.046;3.732;2023-08-17T05:05:05;19.90;99.90
23073;DHT22;67971;51.046;3.732;2023-08-17T05:07:32;19.90;99.90
23073;DHT22;67971;51.046;3.732;2023-08-17T05:09:58;19.90;99.90
23073;DHT22;67971;51.046;3.732;2023-08-17T05:12:24;20.00;99.90
23073;DHT22;67971;51.046;3.732;2023-08-17T05:14:49;20.00;99.90
23073;DHT22;67971;51.046;3.732;2023-08-17T05:17:15;20.00;99.90
23073;DHT22;67971;51.046;3.732;2023-08-17T05:19:41;20.00;99.90
23073;DHT22;67971;51.046;3.732;2023-08-17T05:22:11;20.00;99.90
23073;DHT22;67971;51.046;3.732;2023-08-17T05:24:37;20.00;99.90
23073;DHT22;67971;51.046;3.732;2023-08-17T05:27:03;20.00;99.90
23073;DHT22;67971;51.046;3.732;2023-08-17T05:29:29;19.90;99.90
23073;DHT22;67971;51.046;3.732;2023-08-17T05:31:54;19.90;99.90
23073;DHT22;67971;51.046;3.732;2023-08-17T05:34:20;20.00;99.90
23073;DHT22;67971;51.046;3.732;2023-08-17T05:36:46;20.10;99.90
23073;DHT22;67971;51.046;3.732;2023-08-17T05:39:11;20.20;99.90
23073;DHT22;67971;51.046;3.732;2023-08-17T05:41:37;20.30;99.90
23073;DHT22;67971;51.046;3.732;2023-08-17T05:44:03;20.20;99.90
23073;DHT22;67971;51.046;3.732;2023-08-17T05:46:29;20.20;99.90
23073;DHT22;67971;51.046;3.732;2023-08-17T05:48:54;20.30;99.90
23073;DHT22;67971;51.046;3.732;2023-08-17T05:51:20;20.40;99.90
23073;DHT22;67971;51.046;3.732;2023-08-17T05:53:45;20.50;99.90
23073;DHT22;67971;51.046;3.732;2023-08-17T05:56:11;20.60;99.90
23073;DHT22;67971;51.046;3.732;2023-08-17T05:58:36;20.40;99.90
23073;DHT22;67971;51.046;3.732;2023-08-17T06:01:06;20.40;99.90
23073;DHT22;67971;51.046;3.732;2023-08-17T06:03:33;20.50;99.90
23073;DHT22;67971;51.046;3.732;2023-08-17T06:05:59;20.50;99.90
23073;DHT22;67971;51.046;3.732;2023-08-17T06:08:24;20.50;99.90
23073;DHT22;67971;51.046;3.732;2023-08-17T06:10:50;20.60;99.90
23073;DHT22;67971;51.046;3.732;2023-08-17T06:13:15;20.70;99.90
23073;DHT22;67971;51.046;3.732;2023-08-17T06:15:41;21.00;99.90
23073;DHT22;67971;51.046;3.732;2023-08-17T06:18:09;21.00;99.90
23073;DHT22;67971;51.046;3.732;2023-08-17T06:20:35;21.00;99.90
23073;DHT22;67971;51.046;3.732;2023-08-17T06:23:01;20.70;99.90
23073;DHT22;67971;51.046;3.732;2023-08-17T06:25:26;20.60;99.90
23073;DHT22;67971;51.046;3.732;2023-08-17T06:27:52;20.70;99.90
23073;DHT22;67971;51.046;3.732;2023-08-17T06:30:18;20.90;99.90
23073;DHT22;67971;51.046;3.732;2023-08-17T06:32:43;20.80;99.90
23073;DHT22;67971;51.046;3.732;2023-08-17T06:35:09;20.90;99.90
23073;DHT22;67971;51.046;3.732;2023-08-17T06:37:35;20.90;99.90
23073;DHT22;67971;51.046;3.732;2023-08-17T06:40:03;21.00;99.90
23073;DHT22;67971;51.046;3.732;2023-08-17T06:42:28;21.20;99.90
23073;DHT22;67971;51.046;3.732;2023-08-17T06:44:54;21.40;99.90
23073;DHT22;67971;51.046;3.732;2023-08-17T06:47:20;21.50;99.90
23073;DHT22;67971;51.046;3.732;2023-08-17T06:49:45;21.60;99.90
23073;DHT22;67971;51.046;3.732;2023-08-17T06:52:11;21.50;99.90
23073;DHT22;67971;51.046;3.732;2023-08-17T06:54:37;21.40;99.90
23073;DHT22;67971;51.046;3.732;2023-08-17T06:57:03;21.50;99.90
23073;DHT22;67971;51.046;3.732;2023-08-17T06:59:28;21.40;99.90
23073;DHT22;67971;51.046;3.732;2023-08-17T07:01:54;21.60;99.90
23073;DHT22;67971;51.046;3.732;2023-08-17T07:04:20;21.90;99.90
23073;DHT22;67971;51.046;3.732;2023-08-17T07:06:45;22.00;99.90
23073;DHT22;67971;51.046;3.732;2023-08-17T07:09:11;21.90;99.90
23073;DHT22;67971;51.046;3.732;2023-08-17T07:11:38;21.80;99.90
23073;DHT22;67971;51.046;3.732;2023-08-17T07:14:04;22.10;99.90
23073;DHT22;67971;51.046;3.732;2023-08-17T07:16:32;22.20;99.90
23073;DHT22;67971;51.046;3.732;2023-08-17T07:18:57;21.90;99.90
23073;DHT22;67971;51.046;3.732;2023-08-17T07:21:23;21.90;99.90
23073;DHT22;67971;51.046;3.732;2023-08-17T07:23:50;21.90;99.90
23073;DHT22;67971;51.046;3.732;2023-08-17T07:26:16;21.80;99.90
23073;DHT22;67971;51.046;3.732;2023-08-17T07:28:44;22.10;99.90
23073;DHT22;67971;51.046;3.732;2023-08-17T07:31:10;22.10;99.90
23073;DHT22;67971;51.046;3.732;2023-08-17T07:33:36;22.20;99.90
23073;DHT22;67971;51.046;3.732;2023-08-17T07:36:05;22.10;99.90
23073;DHT22;67971;51.046;3.732;2023-08-17T07:38:30;22.20;99.90
23073;DHT22;67971;51.046;3.732;2023-08-17T07:40:56;22.20;99.90
23073;DHT22;67971;51.046;3.732;2023-08-17T07:43:22;22.00;99.90
23073;DHT22;67971;51.046;3.732;2023-08-17T07:45:57;22.10;99.90
23073;DHT22;67971;51.046;3.732;2023-08-17T07:48:23;22.00;99.90
23073;DHT22;67971;51.046;3.732;2023-08-17T07:50:52;22.20;99.90
23073;DHT22;67971;51.046;3.732;2023-08-17T07:53:19;22.30;99.90
23073;DHT22;67971;51.046;3.732;2023-08-17T07:55:44;22.30;99.90
23073;DHT22;67971;51.046;3.732;2023-08-17T07:58:10;22.20;99.90
23073;DHT22;67971;51.046;3.732;2023-08-17T08:00:36;22.20;99.90
23073;DHT22;67971;51.046;3.732;2023-08-17T08:03:02;22.40;99.90
23073;DHT22;67971;51.046;3.732;2023-08-17T08:05:28;22.50;99.90
23073;DHT22;67971;51.046;3.732;2023-08-17T08:07:53;22.70;99.90
23073;DHT22;67971;51.046;3.732;2023-08-17T08:10:19;23.20;99.90
23073;DHT22;67971;51.046;3.732;2023-08-17T08:12:45;23.80;99.90
23073;DHT22;67971;51.046;3.732;2023-08-17T08:15:10;24.10;99.90
23073;DHT22;67971;51.046;3.732;2023-08-17T08:17:36;24.40;99.90
23073;DHT22;67971;51.046;3.732;2023-08-17T08:20:03;24.50;99.90
23073;DHT22;67971;51.046;3.732;2023-08-17T08:22:29;24.60;99.90
23073;DHT22;67971;51.046;3.732;2023-08-17T08:24:54;24.70;99.90
23073;DHT22;67971;51.046;3.732;2023-08-17T08:27:20;24.50;99.90
23073;DHT22;67971;51.046;3.732;2023-08-17T08:29:46;24.40;99.90
23073;DHT22;67971;51.046;3.732;2023-08-17T08:32:12;24.90;99.90
23073;DHT22;67971;51.046;3.732;2023-08-17T08:34:38;24.80;99.90
23073;DHT22;67971;51.046;3.732;2023-08-17T08:37:03;24.70;99.90
23073;DHT22;67971;51.046;3.732;2023-08-17T08:39:29;24.50;99.90
23073;DHT22;67971;51.046;3.732;2023-08-17T08:41:55;24.70;99.90
23073;DHT22;67971;51.046;3.732;2023-08-17T08:44:21;24.90;99.90
23073;DHT22;67971;51.046;3.732;2023-08-17T08:46:48;25.30;99.90
23073;DHT22;67971;51.046;3.732;2023-08-17T08:49:19;25.80;99.90
23073;DHT22;67971;51.046;3.732;2023-08-17T08:51:49;26.00;99.90
23073;DHT22;67971;51.046;3.732;2023-08-17T08:54:21;26.10;99.90
23073;DHT22;67971;51.046;3.732;2023-08-17T08:56:57;27.30;99.90
23073;DHT22;67971;51.046;3.732;2023-08-17T08:59:25;28.30;99.90
23073;DHT22;67971;51.046;3.732;2023-08-17T09:01:52;28.80;99.90
23073;DHT22;67971;51.046;3.732;2023-08-17T09:04:19;29.20;99.90
23073;DHT22;67971;51.046;3.732;2023-08-17T09:06:45;29.80;99.90
23073;DHT22;67971;51.046;3.732;2023-08-17T09:09:11;30.10;99.90
23073;DHT22;67971;51.046;3.732;2023-08-17T09:11:40;29.70;99.90
23073;DHT22;67971;51.046;3.732;2023-08-17T09:14:06;29.90;99.90
23073;DHT22;67971;51.046;3.732;2023-08-17T09:16:32;30.70;99.90
23073;DHT22;67971;51.046;3.732;2023-08-17T09:18:58;32.00;99.90
23073;DHT22;67971;51.046;3.732;2023-08-17T09:21:24;33.30;99.90
23073;DHT22;67971;51.046;3.732;2023-08-17T09:23:54;34.00;99.90
23073;DHT22;67971;51.046;3.732;2023-08-17T09:26:21;35.30;99.90
23073;DHT22;67971;51.046;3.732;2023-08-17T09:28:52;34.90;99.90
23073;DHT22;67971;51.046;3.732;2023-08-17T09:31:23;34.90;99.90
23073;DHT22;67971;51.046;3.732;2023-08-17T09:33:52;36.00;99.90
23073;DHT22;67971;51.046;3.732;2023-08-17T09:36:22;36.00;99.00
23073;DHT22;67971;51.046;3.732;2023-08-17T09:38:51;35.10;99.00
23073;DHT22;67971;51.046;3.732;2023-08-17T09:41:18;34.90;99.70
23073;DHT22;67971;51.046;3.732;2023-08-17T09:43:44;33.50;99.90
23073;DHT22;67971;51.046;3.732;2023-08-17T09:46:10;32.40;99.90
23073;DHT22;67971;51.046;3.732;2023-08-17T09:48:36;33.30;99.90
23073;DHT22;67971;51.046;3.732;2023-08-17T09:51:02;33.70;99.90
23073;DHT22;67971;51.046;3.732;2023-08-17T09:53:28;34.50;99.90
23073;DHT22;67971;51.046;3.732;2023-08-17T09:55:54;34.20;99.90
23073;DHT22;67971;51.046;3.732;2023-08-17T09:58:22;33.90;99.90
23073;DHT22;67971;51.046;3.732;2023-08-17T10:00:50;33.40;99.90
23073;DHT22;67971;51.046;3.732;2023-08-17T10:03:17;33.00;99.90
23073;DHT22;67971;51.046;3.732;2023-08-17T10:05:44;33.20;99.90
23073;DHT22;67971;51.046;3.732;2023-08-17T10:08:11;33.10;99.90
23073;DHT22;67971;51.046;3.732;2023-08-17T10:10:43;32.90;99.90
23073;DHT22;67971;51.046;3.732;2023-08-17T10:16:03;31.40;99.90
23073;DHT22;67971;51.046;3.732;2023-08-17T10:18:54;31.50;99.90
23073;DHT22;67971;51.046;3.732;2023-08-17T10:21:27;31.10;99.90
23073;DHT22;67971;51.046;3.732;2023-08-17T10:23:55;30.50;99.90
23073;DHT22;67971;51.046;3.732;2023-08-17T10:26:22;29.80;99.90
23073;DHT22;67971;51.046;3.732;2023-08-17T10:28:49;29.50;99.90
23073;DHT22;67971;51.046;3.732;2023-08-17T10:31:15;29.60;99.90
23073;DHT22;67971;51.046;3.732;2023-08-17T10:33:42;29.40;99.90
23073;DHT22;67971;51.046;3.732;2023-08-17T10:36:12;29.20;99.90
23073;DHT22;67971;51.046;3.732;2023-08-17T10:38:38;30.10;99.90
23073;DHT22;67971;51.046;3.732;2023-08-17T10:41:14;30.30;99.90
23073;DHT22;67971;51.046;3.732;2023-08-17T10:43:59;30.30;99.90
23073;DHT22;67971;51.046;3.732;2023-08-17T10:46:36;30.40;99.90
23073;DHT22;67971;51.046;3.732;2023-08-17T10:49:06;31.30;99.90
23073;DHT22;67971;51.046;3.732;2023-08-17T10:51:33;31.60;99.90
23073;DHT22;67971;51.046;3.732;2023-08-17T10:54:01;32.60;99.90
23073;DHT22;67971;51.046;3.732;2023-08-17T10:56:29;32.10;99.90
23073;DHT22;67971;51.046;3.732;2023-08-17T10:58:58;31.30;99.90
23073;DHT22;67971;51.046;3.732;2023-08-17T11:01:40;30.70;99.90
23073;DHT22;67971;51.046;3.732;2023-08-17T11:04:10;30.20;99.90
23073;DHT22;67971;51.046;3.732;2023-08-17T11:06:36;29.50;99.90
23073;DHT22;67971;51.046;3.732;2023-08-17T11:09:06;29.00;99.90
23073;DHT22;67971;51.046;3.732;2023-08-17T11:11:32;29.40;99.90
23073;DHT22;67971;51.046;3.732;2023-08-17T11:13:58;29.50;99.90
23073;DHT22;67971;51.046;3.732;2023-08-17T11:16:23;29.60;99.90
23073;DHT22;67971;51.046;3.732;2023-08-17T11:18:49;29.70;99.90
23073;DHT22;67971;51.046;3.732;2023-08-17T11:21:16;29.20;99.90
23073;DHT22;67971;51.046;3.732;2023-08-17T11:23:42;29.80;99.90
23073;DHT22;67971;51.046;3.732;2023-08-17T11:26:08;30.00;99.90
23073;DHT22;67971;51.046;3.732;2023-08-17T11:28:35;30.20;99.90
23073;DHT22;67971;51.046;3.732;2023-08-17T11:31:08;30.80;99.90
23073;DHT22;67971;51.046;3.732;2023-08-17T11:33:36;31.50;99.90
23073;DHT22;67971;51.046;3.732;2023-08-17T11:36:04;32.40;99.90
23073;DHT22;67971;51.046;3.732;2023-08-17T11:38:38;32.20;99.90
23073;DHT22;67971;51.046;3.732;2023-08-17T11:41:04;31.60;99.90
23073;DHT22;67971;51.046;3.732;2023-08-17T11:43:32;31.30;99.90
23073;DHT22;67971;51.046;3.732;2023-08-17T11:45:59;30.50;99.90
23073;DHT22;67971;51.046;3.732;2023-08-17T11:48:25;30.10;99.90
23073;DHT22;67971;51.046;3.732;2023-08-17T11:50:51;29.60;99.90
23073;DHT22;67971;51.046;3.732;2023-08-17T11:53:17;29.40;99.90
23073;DHT22;67971;51.046;3.732;2023-08-17T11:55:43;28.50;99.90
23073;DHT22;67971;51.046;3.732;2023-08-17T11:58:09;28.30;99.90
23073;DHT22;67971;51.046;3.732;2023-08-17T12:00:44;27.80;99.90
23073;DHT22;67971;51.046;3.732;2023-08-17T12:03:14;27.60;99.90
23073;DHT22;67971;51.046;3.732;2023-08-17T12:05:41;27.60;99.90
23073;DHT22;67971;51.046;3.732;2023-08-17T12:08:07;27.60;99.90
23073;DHT22;67971;51.046;3.732;2023-08-17T12:10:34;27.30;99.90
23073;DHT22;67971;51.046;3.732;2023-08-17T12:13:00;27.00;99.90
23073;DHT22;67971;51.046;3.732;2023-08-17T12:15:33;27.10;99.90
23073;DHT22;67971;51.046;3.732;2023-08-17T12:18:03;27.10;99.90
23073;DHT22;67971;51.046;3.732;2023-08-17T12:20:30;27.10;99.90
23073;DHT22;67971;51.046;3.732;2023-08-17T12:22:57;27.10;99.90
23073;DHT22;67971;51.046;3.732;2023-08-17T12:25:25;26.90;99.90
23073;DHT22;67971;51.046;3.732;2023-08-17T12:27:51;26.70;99.90
23073;DHT22;67971;51.046;3.732;2023-08-17T12:32:51;26.60;99.90
23073;DHT22;67971;51.046;3.732;2023-08-17T12:35:17;26.20;99.90
23073;DHT22;67971;51.046;3.732;2023-08-17T12:37:43;26.10;99.90
23073;DHT22;67971;51.046;3.732;2023-08-17T12:40:09;26.10;99.90
23073;DHT22;67971;51.046;3.732;2023-08-17T12:42:35;26.20;99.90
23073;DHT22;67971;51.046;3.732;2023-08-17T12:45:01;26.30;99.90
23073;DHT22;67971;51.046;3.732;2023-08-17T12:47:26;26.50;99.90
23073;DHT22;67971;51.046;3.732;2023-08-17T12:49:52;26.60;99.90
23073;DHT22;67971;51.046;3.732;2023-08-17T12:52:18;26.90;99.90
23073;DHT22;67971;51.046;3.732;2023-08-17T12:54:43;27.20;99.90
23073;DHT22;67971;51.046;3.732;2023-08-17T12:57:09;27.20;99.90
23073;DHT22;67971;51.046;3.732;2023-08-17T12:59:34;26.80;99.90
23073;DHT22;67971;51.046;3.732;2023-08-17T13:02:00;26.70;99.90
23073;DHT22;67971;51.046;3.732;2023-08-17T13:04:26;26.60;99.90
23073;DHT22;67971;51.046;3.732;2023-08-17T13:06:51;26.60;99.90
23073;DHT22;67971;51.046;3.732;2023-08-17T13:09:17;26.60;99.90
23073;DHT22;67971;51.046;3.732;2023-08-17T13:11:44;26.40;99.90
23073;DHT22;67971;51.046;3.732;2023-08-17T13:14:11;26.30;99.90
23073;DHT22;67971;51.046;3.732;2023-08-17T13:16:37;26.00;99.90
23073;DHT22;67971;51.046;3.732;2023-08-17T13:19:03;26.10;99.90
23073;DHT22;67971;51.046;3.732;2023-08-17T13:21:28;26.40;99.90
23073;DHT22;67971;51.046;3.732;2023-08-17T13:23:54;26.60;99.90
23073;DHT22;67971;51.046;3.732;2023-08-17T13:26:22;26.40;99.90
23073;DHT22;67971;51.046;3.732;2023-08-17T13:28:47;26.60;99.90
23073;DHT22;67971;51.046;3.732;2023-08-17T13:31:13;26.60;99.90
23073;DHT22;67971;51.046;3.732;2023-08-17T13:33:39;26.30;99.90
23073;DHT22;67971;51.046;3.732;2023-08-17T13:36:05;26.20;99.90
23073;DHT22;67971;51.046;3.732;2023-08-17T13:38:30;26.30;99.90
23073;DHT22;67971;51.046;3.732;2023-08-17T13:40:57;26.40;99.90
23073;DHT22;67971;51.046;3.732;2023-08-17T13:43:22;26.70;99.90
23073;DHT22;67971;51.046;3.732;2023-08-17T13:45:48;26.60;99.90
23073;DHT22;67971;51.046;3.732;2023-08-17T13:48:15;26.60;99.90
23073;DHT22;67971;51.046;3.732;2023-08-17T13:50:40;26.60;99.90
23073;DHT22;67971;51.046;3.732;2023-08-17T13:53:06;26.50;99.90
23073;DHT22;67971;51.046;3.732;2023-08-17T13:55:32;26.60;99.90
23073;DHT22;67971;51.046;3.732;2023-08-17T13:57:58;26.60;99.90
23073;DHT22;67971;51.046;3.732;2023-08-17T14:00:25;26.50;99.90
23073;DHT22;67971;51.046;3.732;2023-08-17T14:02:52;26.50;99.90
23073;DHT22;67971;51.046;3.732;2023-08-17T14:05:17;26.50;99.90
23073;DHT22;67971;51.046;3.732;2023-08-17T14:07:43;26.40;99.90
23073;DHT22;67971;51.046;3.732;2023-08-17T14:10:09;26.30;99.90
23073;DHT22;67971;51.046;3.732;2023-08-17T14:12:35;26.30;99.90
23073;DHT22;67971;51.046;3.732;2023-08-17T14:15:00;26.40;99.90
23073;DHT22;67971;51.046;3.732;2023-08-17T14:17:26;26.60;99.90
23073;DHT22;67971;51.046;3.732;2023-08-17T14:19:52;26.50;99.90
23073;DHT22;67971;51.046;3.732;2023-08-17T14:22:17;26.40;99.90
23073;DHT22;67971;51.046;3.732;2023-08-17T14:24:43;26.40;99.90
23073;DHT22;67971;51.046;3.732;2023-08-17T14:27:09;26.40;99.90
23073;DHT22;67971;51.046;3.732;2023-08-17T14:29:34;26.50;99.90
23073;DHT22;67971;51.046;3.732;2023-08-17T14:32:00;26.70;99.90
23073;DHT22;67971;51.046;3.732;2023-08-17T14:34:26;26.70;99.90
23073;DHT22;67971;51.046;3.732;2023-08-17T14:36:51;26.70;99.90
23073;DHT22;67971;51.046;3.732;2023-08-17T14:39:17;26.20;99.90
23073;DHT22;67971;51.046;3.732;2023-08-17T14:41:43;26.30;99.90
23073;DHT22;67971;51.046;3.732;2023-08-17T14:44:08;26.40;99.90
23073;DHT22;67971;51.046;3.732;2023-08-17T14:46:34;26.30;99.90
23073;DHT22;67971;51.046;3.732;2023-08-17T14:49:00;26.50;99.90
23073;DHT22;67971;51.046;3.732;2023-08-17T14:51:28;26.60;99.90
23073;DHT22;67971;51.046;3.732;2023-08-17T14:53:53;26.90;99.90
23073;DHT22;67971;51.046;3.732;2023-08-17T14:56:19;26.70;99.90
23073;DHT22;67971;51.046;3.732;2023-08-17T14:58:45;27.00;99.90
23073;DHT22;67971;51.046;3.732;2023-08-17T15:01:11;27.40;99.90
23073;DHT22;67971;51.046;3.732;2023-08-17T15:03:37;27.90;99.90
23073;DHT22;67971;51.046;3.732;2023-08-17T15:06:06;28.90;99.90
23073;DHT22;67971;51.046;3.732;2023-08-17T15:08:32;29.60;99.90
23073;DHT22;67971;51.046;3.732;2023-08-17T15:10:58;30.10;99.90
23073;DHT22;67971;51.046;3.732;2023-08-17T15:13:27;30.20;99.90
23073;DHT22;67971;51.046;3.732;2023-08-17T15:15:55;30.30;99.90
23073;DHT22;67971;51.046;3.732;2023-08-17T15:18:20;30.10;99.90
23073;DHT22;67971;51.046;3.732;2023-08-17T15:20:46;30.60;99.90
23073;DHT22;67971;51.046;3.732;2023-08-17T15:23:12;30.60;99.90
23073;DHT22;67971;51.046;3.732;2023-08-17T15:25:37;30.10;99.90
23073;DHT22;67971;51.046;3.732;2023-08-17T15:28:03;29.70;99.90
23073;DHT22;67971;51.046;3.732;2023-08-17T15:30:29;29.30;99.90
23073;DHT22;67971;51.046;3.732;2023-08-17T15:32:55;28.90;99.90